CKJ2601 ZSHC-ZGSZ
Flight info
| Callsign | CKJ2601 |
|---|---|
| Flight time | N/A |
| Altitude | 30100 |
| Route | UGAGO5E UGAGO A470 BEBEM R200 OVGOT OVGOT3 |
| Aircraft | IL76/H-SDFGHIM1RTUWXY/LB1 |
Departure
| Time | 2026-04-29 07:43 |
|---|---|
| Airport | Hangzhou Xiaoshan International Airport (ZSHC) |
Arrival
| Time | N/A |
|---|---|
| Airport | Shenzhen Bao'an International Airport (ZGSZ) |
| Time | Latitude | Longitude | Altitude | Speed | Heading |
|---|---|---|---|---|---|
| 2026-04-29 06:56 | 30.24650 | 120.43962 | 33 ft | 0 kts | 153° |
| 2026-04-29 07:20 | 30.24650 | 120.43963 | 33 ft | 0 kts | 153° |
| 2026-04-29 07:20 | 30.24648 | 120.43964 | 33 ft | 0 kts | 153° |
| 2026-04-29 07:26 | 30.24649 | 120.43963 | 33 ft | 1 kts | 153° |
| 2026-04-29 07:26 | 30.24697 | 120.43935 | 33 ft | 13 kts | 158° |
| 2026-04-29 07:26 | 30.24740 | 120.43951 | 33 ft | 0 kts | 242° |
| 2026-04-29 07:27 | 30.24733 | 120.43939 | 33 ft | 2 kts | 236° |
| 2026-04-29 07:27 | 30.24731 | 120.43936 | 33 ft | 0 kts | 243° |
| 2026-04-29 07:29 | 30.24730 | 120.43932 | 33 ft | 2 kts | 243° |
| 2026-04-29 07:30 | 30.24716 | 120.43902 | 33 ft | 6 kts | 243° |
| 2026-04-29 07:30 | 30.24689 | 120.43841 | 33 ft | 10 kts | 243° |
| 2026-04-29 07:30 | 30.24677 | 120.43813 | 33 ft | 0 kts | 243° |
| 2026-04-29 07:31 | 30.24670 | 120.43797 | 33 ft | 4 kts | 243° |
| 2026-04-29 07:32 | 30.24668 | 120.43793 | 33 ft | 0 kts | 243° |
| 2026-04-29 07:35 | 30.24665 | 120.43784 | 33 ft | 3 kts | 243° |
| 2026-04-29 07:36 | 30.24647 | 120.43745 | 33 ft | 7 kts | 243° |
| 2026-04-29 07:36 | 30.24621 | 120.43686 | 33 ft | 7 kts | 242° |
| 2026-04-29 07:36 | 30.24594 | 120.43626 | 33 ft | 9 kts | 243° |
| 2026-04-29 07:36 | 30.24582 | 120.43545 | 33 ft | 11 kts | 302° |
| 2026-04-29 07:37 | 30.24661 | 120.43489 | 33 ft | 15 kts | 333° |
| 2026-04-29 07:37 | 30.24750 | 120.43432 | 33 ft | 12 kts | 313° |
| 2026-04-29 07:37 | 30.24735 | 120.43330 | 33 ft | 15 kts | 240° |
| 2026-04-29 07:37 | 30.24679 | 120.43205 | 33 ft | 19 kts | 243° |
| 2026-04-29 07:38 | 30.24611 | 120.43050 | 33 ft | 23 kts | 243° |
| 2026-04-29 07:38 | 30.24531 | 120.42870 | 33 ft | 27 kts | 242° |
| 2026-04-29 07:38 | 30.24439 | 120.42660 | 33 ft | 30 kts | 242° |
| 2026-04-29 07:38 | 30.24356 | 120.42473 | 33 ft | 26 kts | 243° |
| 2026-04-29 07:39 | 30.24264 | 120.42265 | 33 ft | 30 kts | 243° |
| 2026-04-29 07:39 | 30.24188 | 120.42094 | 33 ft | 17 kts | 243° |
| 2026-04-29 07:39 | 30.24125 | 120.41952 | 33 ft | 21 kts | 243° |
| 2026-04-29 07:39 | 30.24050 | 120.41782 | 33 ft | 25 kts | 243° |
| 2026-04-29 07:40 | 30.23961 | 120.41582 | 33 ft | 29 kts | 242° |
| 2026-04-29 07:40 | 30.23881 | 120.41400 | 33 ft | 25 kts | 242° |
| 2026-04-29 07:40 | 30.23804 | 120.41227 | 33 ft | 24 kts | 243° |
| 2026-04-29 07:40 | 30.23724 | 120.41045 | 33 ft | 25 kts | 243° |
| 2026-04-29 07:41 | 30.23683 | 120.40951 | 33 ft | 9 kts | 253° |
| 2026-04-29 07:41 | 30.23698 | 120.40916 | 33 ft | 5 kts | 322° |
| 2026-04-29 07:41 | 30.23743 | 120.40891 | 33 ft | 9 kts | 336° |
| 2026-04-29 07:41 | 30.23813 | 120.40857 | 33 ft | 11 kts | 346° |
| 2026-04-29 07:42 | 30.23852 | 120.40906 | 33 ft | 0 kts | 62° |
| 2026-04-29 07:42 | 30.23873 | 120.40951 | 33 ft | 30 kts | 62° |
| 2026-04-29 07:42 | 30.24086 | 120.41434 | 33 ft | 100 kts | 63° |
| 2026-04-29 07:43 | 30.24484 | 120.42332 | 33 ft | 146 kts | 60° |
| 2026-04-29 07:43 | 30.24994 | 120.43485 | 41 ft | 174 kts | 60° |
| 2026-04-29 07:43 | 30.25534 | 120.44704 | 496 ft | 160 kts | 57° |
| 2026-04-29 07:43 | 30.26155 | 120.45742 | 665 ft | 171 kts | 54° |
| 2026-04-29 07:44 | 30.26724 | 120.47022 | 881 ft | 168 kts | 64° |
| 2026-04-29 07:44 | 30.27005 | 120.48229 | 1413 ft | 168 kts | 77° |
| 2026-04-29 07:44 | 30.27348 | 120.49648 | 1461 ft | 181 kts | 60° |
| 2026-04-29 07:44 | 30.27940 | 120.50919 | 1515 ft | 205 kts | 63° |
| 2026-04-29 07:45 | 30.28463 | 120.52636 | 1196 ft | 222 kts | 69° |
| 2026-04-29 07:45 | 30.28762 | 120.54135 | 1911 ft | 208 kts | 73° |
| 2026-04-29 07:45 | 30.28884 | 120.56014 | 1105 ft | 240 kts | 84° |
| 2026-04-29 07:45 | 30.28827 | 120.57775 | 2086 ft | 213 kts | 98° |
| 2026-04-29 07:46 | 30.28127 | 120.58994 | 3274 ft | 177 kts | 136° |
| 2026-04-29 07:46 | 30.26868 | 120.59742 | 2769 ft | 236 kts | 154° |
| 2026-04-29 07:46 | 30.25375 | 120.60789 | 2835 ft | 274 kts | 134° |
| 2026-04-29 07:46 | 30.24304 | 120.62795 | 2479 ft | 320 kts | 98° |
| 2026-04-29 07:47 | 30.23622 | 120.65365 | 2186 ft | 372 kts | 116° |
| 2026-04-29 07:47 | 30.22023 | 120.68075 | 795 ft | 435 kts | 127° |
| 2026-04-29 07:47 | 30.19931 | 120.69005 | 5263 ft | 342 kts | 220° |
| 2026-04-29 07:47 | 30.19262 | 120.66984 | 7912 ft | 268 kts | 269° |
| 2026-04-29 07:48 | 30.18769 | 120.65153 | 9395 ft | 243 kts | 236° |
| 2026-04-29 07:48 | 30.17655 | 120.63661 | 9804 ft | 241 kts | 211° |
| 2026-04-29 07:48 | 30.16071 | 120.62682 | 8785 ft | 301 kts | 204° |
| 2026-04-29 07:48 | 30.14843 | 120.60748 | 6022 ft | 397 kts | 274° |
| 2026-04-29 07:49 | 30.15123 | 120.57970 | 8187 ft | 313 kts | 290° |
| 2026-04-29 07:49 | 30.15770 | 120.56509 | 11309 ft | 191 kts | 303° |
| 2026-04-29 07:49 | 30.16479 | 120.55106 | 10562 ft | 254 kts | 299° |